Aviation Digital Data Service (ADDS)

Output produced by METARs form (0202 UTC 16 July 2019)
found at http://www.aviationweather.gov/metar/data/
 
Forecast for: KDFW (DALLAS/FT WORTH , TX, US)
Text: KDFW 152327Z 1600/1706 19006KT P6SM FEW050
Forecast period: 0000 to 1500 UTC 16 July 2019
Forecast type: FROM: standard forecast or significant change
Winds: from the S (190 degrees) at 7 MPH (6 knots; 3.1 m/s)
Visibility: 6 or more miles 10+ km)
Ceiling: at least 12,000 feet AGL
Clouds: few clouds at 5000 feet AGL
Weather: no significant weather forecast for this period
Text: FM161500 19015KT P6SM FEW040
Forecast period: 1500 UTC 16 July 2019 to 0600 UTC 17 July 2019
Forecast type: FROM: standard forecast or significant change
Winds: from the S (190 degrees) at 17 MPH (15 knots; 7.7 m/s)
Visibility: 6 or more miles 10+ km)
Ceiling: at least 12,000 feet AGL
Clouds: few clouds at 4000 feet AGL
Weather: no significant weather forecast for this period